sensor_id;sensor_type;location;lat;lon;timestamp;P1;durP1;ratioP1;P2;durP2;ratioP2
49980;SDS011;35871;51.594;7.138;2023-05-10T05:51:27;23.25;;;16.00;;
49980;SDS011;35871;51.594;7.138;2023-05-10T05:56:29;14.23;;;10.77;;
49980;SDS011;35871;51.594;7.138;2023-05-10T06:06:30;19.10;;;10.90;;
49980;SDS011;35871;51.594;7.138;2023-05-10T06:11:32;6.40;;;5.18;;
49980;SDS011;35871;51.594;7.138;2023-05-10T06:16:33;8.98;;;6.80;;
49980;SDS011;35871;51.594;7.138;2023-05-10T06:21:34;18.75;;;13.35;;
49980;SDS011;35871;51.594;7.138;2023-05-10T06:26:35;24.70;;;19.58;;
49980;SDS011;35871;51.594;7.138;2023-05-10T06:31:37;13.77;;;11.35;;
49980;SDS011;35871;51.594;7.138;2023-05-10T06:36:38;20.73;;;15.88;;
49980;SDS011;35871;51.594;7.138;2023-05-10T06:41:39;8.75;;;7.35;;
49980;SDS011;35871;51.594;7.138;2023-05-10T06:46:40;16.90;;;13.63;;
49980;SDS011;35871;51.594;7.138;2023-05-10T06:51:41;20.75;;;16.60;;
49980;SDS011;35871;51.594;7.138;2023-05-10T06:56:42;21.45;;;16.83;;
49980;SDS011;35871;51.594;7.138;2023-05-10T07:01:43;18.70;;;15.82;;
49980;SDS011;35871;51.594;7.138;2023-05-10T07:06:44;10.35;;;7.55;;
49980;SDS011;35871;51.594;7.138;2023-05-10T07:11:46;9.55;;;8.05;;
49980;SDS011;35871;51.594;7.138;2023-05-10T07:16:47;12.07;;;9.57;;
49980;SDS011;35871;51.594;7.138;2023-05-10T07:21:48;14.82;;;13.07;;
49980;SDS011;35871;51.594;7.138;2023-05-10T07:26:50;24.98;;;20.42;;
49980;SDS011;35871;51.594;7.138;2023-05-10T07:31:51;16.50;;;14.48;;
49980;SDS011;35871;51.594;7.138;2023-05-10T07:36:52;21.70;;;18.70;;
49980;SDS011;35871;51.594;7.138;2023-05-10T07:41:56;20.05;;;17.40;;
49980;SDS011;35871;51.594;7.138;2023-05-10T07:46:57;25.00;;;20.63;;
49980;SDS011;35871;51.594;7.138;2023-05-10T07:51:58;28.10;;;22.60;;
49980;SDS011;35871;51.594;7.138;2023-05-10T07:56:59;28.02;;;20.73;;
49980;SDS011;35871;51.594;7.138;2023-05-10T08:02:00;26.48;;;22.77;;
49980;SDS011;35871;51.594;7.138;2023-05-10T08:07:02;25.08;;;22.15;;
49980;SDS011;35871;51.594;7.138;2023-05-10T08:12:03;27.17;;;22.83;;
49980;SDS011;35871;51.594;7.138;2023-05-10T08:17:04;27.70;;;23.60;;
49980;SDS011;35871;51.594;7.138;2023-05-10T08:22:05;24.85;;;21.45;;
49980;SDS011;35871;51.594;7.138;2023-05-10T08:27:07;24.30;;;20.77;;
49980;SDS011;35871;51.594;7.138;2023-05-10T08:32:08;22.92;;;20.52;;
49980;SDS011;35871;51.594;7.138;2023-05-10T08:37:09;21.23;;;18.83;;
49980;SDS011;35871;51.594;7.138;2023-05-10T08:42:12;28.33;;;23.92;;
49980;SDS011;35871;51.594;7.138;2023-05-10T08:47:17;24.83;;;20.02;;
49980;SDS011;35871;51.594;7.138;2023-05-10T08:52:18;25.75;;;21.15;;
49980;SDS011;35871;51.594;7.138;2023-05-10T08:57:19;23.48;;;19.40;;
49980;SDS011;35871;51.594;7.138;2023-05-10T09:02:21;16.23;;;13.88;;
49980;SDS011;35871;51.594;7.138;2023-05-10T09:07:23;16.27;;;13.55;;
49980;SDS011;35871;51.594;7.138;2023-05-10T09:12:24;22.08;;;14.60;;
49980;SDS011;35871;51.594;7.138;2023-05-10T09:17:25;18.67;;;14.57;;
49980;SDS011;35871;51.594;7.138;2023-05-10T09:22:28;15.90;;;12.23;;
49980;SDS011;35871;51.594;7.138;2023-05-10T09:27:29;16.38;;;13.43;;
49980;SDS011;35871;51.594;7.138;2023-05-10T09:32:40;18.95;;;14.60;;
49980;SDS011;35871;51.594;7.138;2023-05-10T09:37:42;17.05;;;14.38;;
49980;SDS011;35871;51.594;7.138;2023-05-10T09:47:57;17.25;;;13.35;;
49980;SDS011;35871;51.594;7.138;2023-05-10T09:52:59;15.77;;;13.23;;
49980;SDS011;35871;51.594;7.138;2023-05-10T09:58:01;17.58;;;12.90;;
49980;SDS011;35871;51.594;7.138;2023-05-10T10:03:02;17.98;;;13.05;;
49980;SDS011;35871;51.594;7.138;2023-05-10T10:08:04;15.50;;;12.05;;
49980;SDS011;35871;51.594;7.138;2023-05-10T10:13:05;15.73;;;12.77;;
49980;SDS011;35871;51.594;7.138;2023-05-10T10:18:06;17.83;;;13.68;;
49980;SDS011;35871;51.594;7.138;2023-05-10T10:23:08;18.27;;;12.65;;
49980;SDS011;35871;51.594;7.138;2023-05-10T10:28:16;17.23;;;13.52;;
49980;SDS011;35871;51.594;7.138;2023-05-10T10:33:30;16.85;;;13.85;;
49980;SDS011;35871;51.594;7.138;2023-05-10T10:43:48;16.73;;;12.60;;
49980;SDS011;35871;51.594;7.138;2023-05-10T10:49:10;13.55;;;11.23;;
49980;SDS011;35871;51.594;7.138;2023-05-10T10:54:10;14.75;;;11.63;;
49980;SDS011;35871;51.594;7.138;2023-05-10T10:59:12;18.80;;;15.05;;
49980;SDS011;35871;51.594;7.138;2023-05-10T11:04:27;20.88;;;16.08;;
49980;SDS011;35871;51.594;7.138;2023-05-10T11:09:40;21.15;;;16.15;;
49980;SDS011;35871;51.594;7.138;2023-05-10T11:14:41;18.77;;;13.68;;
49980;SDS011;35871;51.594;7.138;2023-05-10T11:19:57;14.02;;;11.30;;
49980;SDS011;35871;51.594;7.138;2023-05-10T11:25:01;17.25;;;13.48;;
49980;SDS011;35871;51.594;7.138;2023-05-10T11:30:04;14.05;;;11.07;;
49980;SDS011;35871;51.594;7.138;2023-05-10T11:35:09;15.70;;;12.18;;
49980;SDS011;35871;51.594;7.138;2023-05-10T11:40:10;14.23;;;11.95;;
49980;SDS011;35871;51.594;7.138;2023-05-10T11:45:12;15.65;;;12.23;;
49980;SDS011;35871;51.594;7.138;2023-05-10T11:50:13;13.65;;;11.38;;
49980;SDS011;35871;51.594;7.138;2023-05-10T11:55:14;14.35;;;10.73;;
49980;SDS011;35871;51.594;7.138;2023-05-10T12:00:16;13.52;;;9.95;;
49980;SDS011;35871;51.594;7.138;2023-05-10T12:05:17;10.98;;;8.48;;
49980;SDS011;35871;51.594;7.138;2023-05-10T12:10:24;15.90;;;11.00;;
49980;SDS011;35871;51.594;7.138;2023-05-10T12:15:26;14.73;;;11.77;;
49980;SDS011;35871;51.594;7.138;2023-05-10T12:20:28;13.27;;;9.48;;
49980;SDS011;35871;51.594;7.138;2023-05-10T12:25:30;24.30;;;15.43;;
49980;SDS011;35871;51.594;7.138;2023-05-10T12:30:32;8.77;;;7.50;;
49980;SDS011;35871;51.594;7.138;2023-05-10T12:35:33;12.00;;;9.52;;
49980;SDS011;35871;51.594;7.138;2023-05-10T12:40:34;9.23;;;7.70;;
49980;SDS011;35871;51.594;7.138;2023-05-10T12:45:35;14.63;;;10.93;;
49980;SDS011;35871;51.594;7.138;2023-05-10T12:50:36;18.10;;;13.07;;
49980;SDS011;35871;51.594;7.138;2023-05-10T12:55:37;12.57;;;9.55;;
49980;SDS011;35871;51.594;7.138;2023-05-10T13:00:38;13.73;;;12.32;;
49980;SDS011;35871;51.594;7.138;2023-05-10T13:05:40;14.45;;;12.15;;
49980;SDS011;35871;51.594;7.138;2023-05-10T13:10:41;11.85;;;10.07;;
49980;SDS011;35871;51.594;7.138;2023-05-10T13:15:42;13.75;;;10.20;;
49980;SDS011;35871;51.594;7.138;2023-05-10T13:20:43;16.45;;;12.23;;
49980;SDS011;35871;51.594;7.138;2023-05-10T13:25:44;15.35;;;13.00;;
49980;SDS011;35871;51.594;7.138;2023-05-10T13:30:45;11.43;;;10.00;;
49980;SDS011;35871;51.594;7.138;2023-05-10T13:35:46;10.93;;;8.80;;
49980;SDS011;35871;51.594;7.138;2023-05-10T13:40:47;8.18;;;7.32;;
49980;SDS011;35871;51.594;7.138;2023-05-10T13:45:52;7.75;;;6.40;;
49980;SDS011;35871;51.594;7.138;2023-05-10T13:50:53;8.02;;;6.07;;
49980;SDS011;35871;51.594;7.138;2023-05-10T13:55:54;12.88;;;8.90;;
49980;SDS011;35871;51.594;7.138;2023-05-10T14:00:55;6.35;;;5.72;;
49980;SDS011;35871;51.594;7.138;2023-05-10T14:05:57;8.80;;;5.70;;
49980;SDS011;35871;51.594;7.138;2023-05-10T14:10:58;6.82;;;5.45;;
49980;SDS011;35871;51.594;7.138;2023-05-10T14:15:59;6.45;;;4.65;;
49980;SDS011;35871;51.594;7.138;2023-05-10T14:21:01;6.85;;;5.40;;
49980;SDS011;35871;51.594;7.138;2023-05-10T14:26:02;5.00;;;4.50;;
49980;SDS011;35871;51.594;7.138;2023-05-10T14:31:03;5.95;;;4.85;;
49980;SDS011;35871;51.594;7.138;2023-05-10T14:36:05;6.57;;;5.53;;
49980;SDS011;35871;51.594;7.138;2023-05-10T14:41:07;9.77;;;7.30;;
49980;SDS011;35871;51.594;7.138;2023-05-10T14:46:08;6.45;;;4.68;;
49980;SDS011;35871;51.594;7.138;2023-05-10T14:51:09;4.97;;;4.47;;
49980;SDS011;35871;51.594;7.138;2023-05-10T14:56:10;10.63;;;8.15;;
49980;SDS011;35871;51.594;7.138;2023-05-10T15:01:11;7.88;;;5.35;;
49980;SDS011;35871;51.594;7.138;2023-05-10T15:06:14;6.63;;;5.47;;
49980;SDS011;35871;51.594;7.138;2023-05-10T15:11:18;17.02;;;14.35;;
49980;SDS011;35871;51.594;7.138;2023-05-10T15:16:20;11.02;;;9.27;;
49980;SDS011;35871;51.594;7.138;2023-05-10T15:21:21;8.13;;;6.65;;
49980;SDS011;35871;51.594;7.138;2023-05-10T15:26:22;7.90;;;5.75;;
49980;SDS011;35871;51.594;7.138;2023-05-10T15:31:26;6.25;;;4.43;;
49980;SDS011;35871;51.594;7.138;2023-05-10T15:36:27;5.88;;;4.65;;
49980;SDS011;35871;51.594;7.138;2023-05-10T15:41:28;7.70;;;5.90;;
49980;SDS011;35871;51.594;7.138;2023-05-10T15:46:29;7.10;;;5.43;;
49980;SDS011;35871;51.594;7.138;2023-05-10T15:51:31;5.25;;;4.53;;
49980;SDS011;35871;51.594;7.138;2023-05-10T15:56:35;5.72;;;4.53;;
49980;SDS011;35871;51.594;7.138;2023-05-10T16:01:37;6.03;;;4.20;;
49980;SDS011;35871;51.594;7.138;2023-05-10T16:06:38;7.40;;;5.03;;
49980;SDS011;35871;51.594;7.138;2023-05-10T16:11:39;7.82;;;4.50;;
49980;SDS011;35871;51.594;7.138;2023-05-10T16:16:42;5.18;;;4.65;;
49980;SDS011;35871;51.594;7.138;2023-05-10T16:21:43;5.35;;;3.28;;
49980;SDS011;35871;51.594;7.138;2023-05-10T16:26:44;5.28;;;3.70;;
49980;SDS011;35871;51.594;7.138;2023-05-10T16:31:46;4.22;;;2.92;;
49980;SDS011;35871;51.594;7.138;2023-05-10T16:36:47;6.72;;;4.90;;
49980;SDS011;35871;51.594;7.138;2023-05-10T16:41:48;3.78;;;3.05;;
49980;SDS011;35871;51.594;7.138;2023-05-10T16:46:49;8.18;;;7.22;;
49980;SDS011;35871;51.594;7.138;2023-05-10T16:51:50;9.20;;;7.72;;
49980;SDS011;35871;51.594;7.138;2023-05-10T16:56:51;5.28;;;4.53;;
49980;SDS011;35871;51.594;7.138;2023-05-10T17:01:52;4.60;;;4.18;;
49980;SDS011;35871;51.594;7.138;2023-05-10T17:06:53;6.80;;;5.60;;
49980;SDS011;35871;51.594;7.138;2023-05-10T17:11:54;6.72;;;5.85;;
49980;SDS011;35871;51.594;7.138;2023-05-10T17:16:55;5.82;;;5.22;;
49980;SDS011;35871;51.594;7.138;2023-05-10T17:21:56;4.45;;;3.60;;
49980;SDS011;35871;51.594;7.138;2023-05-10T17:26:57;7.05;;;4.82;;
49980;SDS011;35871;51.594;7.138;2023-05-10T17:31:59;6.95;;;4.80;;
49980;SDS011;35871;51.594;7.138;2023-05-10T17:37:00;7.40;;;4.90;;
49980;SDS011;35871;51.594;7.138;2023-05-10T17:42:01;6.78;;;5.45;;
49980;SDS011;35871;51.594;7.138;2023-05-10T17:47:03;8.00;;;5.80;;
49980;SDS011;35871;51.594;7.138;2023-05-10T17:52:06;6.80;;;5.43;;
49980;SDS011;35871;51.594;7.138;2023-05-10T17:57:07;4.95;;;4.07;;
49980;SDS011;35871;51.594;7.138;2023-05-10T18:02:08;5.90;;;4.30;;
49980;SDS011;35871;51.594;7.138;2023-05-10T18:07:09;4.38;;;3.88;;
49980;SDS011;35871;51.594;7.138;2023-05-10T18:12:10;5.38;;;4.78;;
49980;SDS011;35871;51.594;7.138;2023-05-10T18:17:11;4.78;;;4.22;;
49980;SDS011;35871;51.594;7.138;2023-05-10T18:22:12;6.18;;;5.15;;
49980;SDS011;35871;51.594;7.138;2023-05-10T18:27:13;7.32;;;5.65;;
49980;SDS011;35871;51.594;7.138;2023-05-10T18:32:15;5.03;;;4.28;;
49980;SDS011;35871;51.594;7.138;2023-05-10T18:37:16;5.32;;;4.25;;
49980;SDS011;35871;51.594;7.138;2023-05-10T18:42:17;5.07;;;4.10;;
49980;SDS011;35871;51.594;7.138;2023-05-10T18:47:19;5.13;;;3.65;;
49980;SDS011;35871;51.594;7.138;2023-05-10T18:52:20;5.18;;;4.55;;
49980;SDS011;35871;51.594;7.138;2023-05-10T18:57:21;4.90;;;4.18;;
49980;SDS011;35871;51.594;7.138;2023-05-10T19:02:23;6.07;;;4.30;;
49980;SDS011;35871;51.594;7.138;2023-05-10T19:07:25;4.75;;;3.83;;
49980;SDS011;35871;51.594;7.138;2023-05-10T19:12:32;4.25;;;3.60;;
